createdAt,value
2023-03-02T00:02:00.925Z,76.09
2023-03-02T00:04:39.725Z,76.27
2023-03-02T00:07:10.463Z,76.22
2023-03-02T00:09:38.357Z,76.03
2023-03-02T00:12:06.199Z,76.07
2023-03-02T00:14:32.605Z,76.56
2023-03-02T00:16:59.115Z,76.39
2023-03-02T00:19:25.487Z,76.11
2023-03-02T00:21:51.866Z,76.29
2023-03-02T00:24:18.248Z,76.31
2023-03-02T00:26:44.965Z,76.26
2023-03-02T00:29:11.381Z,76.02
2023-03-02T00:31:38.371Z,76.22
2023-03-02T00:34:04.905Z,75.82
2023-03-02T00:36:31.298Z,76.10
2023-03-02T00:38:57.863Z,75.89
2023-03-02T00:41:24.517Z,76.04
2023-03-02T00:43:51.485Z,76.59
2023-03-02T00:46:22.746Z,76.18
2023-03-02T00:48:49.493Z,76.07
2023-03-02T00:51:16.627Z,76.37
2023-03-02T00:53:43.501Z,76.21
2023-03-02T00:56:10.941Z,76.46
2023-03-02T00:58:37.840Z,76.19
2023-03-02T01:01:10.688Z,76.72
2023-03-02T01:03:37.642Z,76.96
2023-03-02T01:06:06.022Z,76.34
2023-03-02T01:08:32.487Z,76.57
2023-03-02T01:11:01.301Z,76.48
2023-03-02T01:13:28.425Z,76.90
2023-03-02T01:16:02.701Z,76.56
2023-03-02T01:18:29.585Z,76.73
2023-03-02T01:21:08.418Z,76.68
2023-03-02T01:23:35.254Z,76.77
2023-03-02T01:26:01.769Z,76.55
2023-03-02T01:28:28.734Z,76.79
2023-03-02T01:30:55.122Z,76.72
2023-03-02T01:33:22.197Z,76.67
2023-03-02T01:35:48.759Z,77.43
2023-03-02T01:38:15.278Z,77.05
2023-03-02T01:40:41.731Z,77.16
2023-03-02T01:43:14.245Z,77.33
2023-03-02T01:45:45.535Z,77.18
2023-03-02T01:48:15.719Z,77.22
2023-03-02T01:50:42.145Z,77.33
2023-03-02T01:53:09.048Z,77.57
2023-03-02T01:55:38.885Z,77.89
2023-03-02T01:58:06.602Z,77.76
2023-03-02T02:00:38.469Z,78.28
2023-03-02T02:03:37.218Z,78.51
2023-03-02T02:06:20.535Z,78.19
2023-03-02T02:08:48.854Z,77.85
2023-03-02T02:11:15.480Z,78.25
2023-03-02T02:13:42.546Z,78.13
2023-03-02T02:16:09.207Z,78.43
2023-03-02T02:18:39.163Z,78.69
2023-03-02T02:21:07.113Z,78.27
2023-03-02T02:23:50.346Z,78.02
2023-03-02T02:26:31.481Z,77.98
2023-03-02T02:29:02.693Z,77.88
2023-03-02T02:31:36.851Z,77.90
2023-03-02T02:34:15.980Z,78.09
2023-03-02T02:36:47.679Z,78.22
2023-03-02T02:39:35.270Z,78.39
2023-03-02T02:42:05.839Z,77.97
2023-03-02T02:44:33.121Z,78.50
2023-03-02T02:46:59.513Z,78.27
2023-03-02T02:49:38.138Z,78.41
2023-03-02T02:52:06.252Z,78.23
2023-03-02T02:54:35.119Z,77.95
2023-03-02T02:57:03.681Z,78.02
2023-03-02T02:59:35.639Z,77.87
2023-03-02T03:02:02.251Z,77.62
2023-03-02T03:04:31.492Z,78.05
2023-03-02T03:07:03.065Z,77.83
2023-03-02T03:09:31.082Z,78.06
2023-03-02T03:12:07.906Z,78.08
2023-03-02T03:14:37.917Z,77.79
2023-03-02T03:17:12.446Z,78.08
2023-03-02T03:19:44.691Z,79.30
2023-03-02T03:22:12.737Z,78.71
2023-03-02T03:24:40.863Z,79.33
2023-03-02T03:27:09.328Z,78.78
2023-03-02T03:29:37.723Z,79.00
2023-03-02T03:32:05.447Z,79.64
2023-03-02T03:34:32.509Z,79.54
2023-03-02T03:37:01.679Z,79.98
2023-03-02T03:39:30.048Z,80.17
2023-03-02T03:41:56.493Z,80.20
2023-03-02T03:44:23.455Z,79.86
2023-03-02T03:46:50.277Z,80.06
2023-03-02T03:49:17.499Z,80.28
2023-03-02T03:51:44.256Z,79.99
2023-03-02T03:54:10.899Z,79.98
2023-03-02T03:56:44.991Z,80.59
2023-03-02T03:59:15.217Z,80.39
2023-03-02T04:01:45.020Z,80.15
2023-03-02T04:04:16.267Z,79.86
2023-03-02T04:06:43.237Z,79.55
2023-03-02T04:09:09.844Z,79.60
2023-03-02T04:11:39.491Z,79.90
2023-03-02T04:14:06.990Z,80.48
2023-03-02T04:16:33.729Z,80.50
2023-03-02T04:19:01.101Z,80.43
2023-03-02T04:21:27.978Z,80.65
2023-03-02T04:23:54.746Z,80.12
2023-03-02T04:26:21.510Z,79.96
2023-03-02T04:28:50.840Z,80.35
2023-03-02T04:31:17.948Z,80.57
2023-03-02T04:33:44.395Z,80.98
2023-03-02T04:36:11.060Z,80.88
2023-03-02T04:38:37.444Z,80.96
2023-03-02T04:41:04.031Z,80.67
2023-03-02T04:43:32.151Z,80.44
2023-03-02T04:45:58.959Z,80.65
2023-03-02T04:48:25.713Z,81.13
2023-03-02T04:50:52.260Z,81.20
2023-03-02T04:53:18.647Z,81.41
2023-03-02T04:55:45.092Z,81.85
2023-03-02T04:58:11.751Z,81.44
2023-03-02T05:00:38.575Z,81.28
2023-03-02T05:03:05.854Z,81.58
2023-03-02T05:05:33.004Z,81.76
2023-03-02T05:07:59.756Z,81.51
2023-03-02T05:10:27.883Z,81.50
2023-03-02T05:13:05.098Z,81.54
2023-03-02T05:15:37.888Z,81.43
2023-03-02T05:18:06.645Z,80.97
2023-03-02T05:20:34.324Z,80.90
2023-03-02T05:23:04.102Z,80.50
2023-03-02T05:25:32.381Z,80.72
2023-03-02T05:27:59.033Z,80.86
2023-03-02T05:30:25.838Z,81.08
2023-03-02T05:32:52.841Z,81.33
2023-03-02T05:35:21.552Z,81.00
2023-03-02T05:37:48.576Z,80.72
2023-03-02T05:40:19.414Z,80.53
2023-03-02T05:42:46.622Z,80.81
2023-03-02T05:45:39.776Z,81.12
2023-03-02T05:48:07.256Z,81.50
2023-03-02T05:50:33.786Z,81.30
2023-03-02T05:53:02.410Z,81.13
2023-03-02T05:55:29.128Z,81.56
2023-03-02T05:57:55.841Z,81.54
2023-03-02T06:00:22.813Z,81.15
2023-03-02T06:02:49.354Z,81.71
2023-03-02T06:05:18.900Z,81.97
2023-03-02T06:07:45.761Z,81.79
2023-03-02T06:10:13.097Z,81.54
2023-03-02T06:12:40.387Z,81.67
2023-03-02T06:15:07.943Z,81.52
2023-03-02T06:17:34.660Z,81.78
2023-03-02T06:20:01.149Z,81.55
2023-03-02T06:22:27.541Z,81.58
2023-03-02T06:24:56.914Z,81.15
2023-03-02T06:27:23.704Z,81.37
2023-03-02T06:29:50.180Z,81.12
2023-03-02T06:32:17.040Z,80.78
2023-03-02T06:34:43.473Z,80.51
2023-03-02T06:37:10.447Z,80.04
2023-03-02T06:39:36.835Z,79.92
2023-03-02T06:42:03.286Z,80.06
2023-03-02T06:44:29.773Z,80.50
2023-03-02T06:46:56.275Z,79.69
2023-03-02T06:49:22.656Z,79.48
2023-03-02T06:51:49.148Z,80.00
2023-03-02T06:54:15.516Z,79.75
2023-03-02T06:56:41.962Z,79.52
2023-03-02T06:59:08.360Z,79.18
2023-03-02T07:01:36.246Z,79.06
2023-03-02T07:04:03.207Z,79.31
2023-03-02T07:06:29.642Z,78.83
2023-03-02T07:08:56.046Z,78.67
2023-03-02T07:11:22.529Z,78.68
2023-03-02T07:13:49.702Z,78.80
2023-03-02T07:16:16.243Z,78.30
2023-03-02T07:18:42.777Z,77.98
2023-03-02T07:21:09.310Z,78.22
2023-03-02T07:23:35.770Z,77.59
2023-03-02T07:26:02.167Z,77.47
2023-03-02T07:28:28.593Z,76.95
2023-03-02T07:30:55.080Z,76.83
2023-03-02T07:33:22.457Z,76.96
2023-03-02T07:35:48.979Z,76.46
2023-03-02T07:38:15.611Z,76.48
2023-03-02T07:40:43.234Z,76.48
2023-03-02T07:43:10.558Z,75.90
2023-03-02T07:45:38.225Z,76.20
2023-03-02T07:48:05.362Z,75.89
2023-03-02T07:50:32.441Z,75.42
2023-03-02T07:53:00.031Z,75.36
2023-03-02T07:55:26.792Z,75.10
2023-03-02T07:57:53.409Z,74.98
2023-03-02T08:00:20.763Z,74.75
2023-03-02T08:02:47.460Z,74.03
2023-03-02T08:05:13.962Z,74.19
2023-03-02T08:07:43.898Z,73.64
2023-03-02T08:10:11.483Z,73.20
2023-03-02T08:12:38.044Z,73.06
2023-03-02T08:15:05.207Z,73.35
2023-03-02T08:17:32.438Z,73.02
2023-03-02T08:19:58.906Z,72.79
2023-03-02T08:22:25.773Z,72.96
2023-03-02T08:24:52.364Z,72.97
2023-03-02T08:27:18.863Z,72.52
2023-03-02T08:29:45.259Z,72.12
2023-03-02T08:32:12.009Z,72.07
2023-03-02T08:34:38.474Z,71.93
2023-03-02T08:37:04.939Z,71.49
2023-03-02T08:39:32.129Z,71.81
2023-03-02T08:41:58.629Z,71.38
2023-03-02T08:44:25.248Z,71.24
2023-03-02T08:46:51.837Z,71.01
2023-03-02T08:49:19.944Z,70.81
2023-03-02T08:51:48.960Z,70.46
2023-03-02T08:54:16.410Z,70.34
2023-03-02T08:56:44.368Z,69.51
2023-03-02T08:59:14.937Z,70.02
2023-03-02T09:01:42.542Z,69.93
2023-03-02T09:04:10.330Z,69.86
2023-03-02T09:06:39.477Z,68.90
2023-03-02T09:09:07.812Z,68.68
2023-03-02T09:11:34.606Z,68.85
2023-03-02T09:14:01.236Z,68.38
2023-03-02T09:16:27.908Z,68.19
2023-03-02T09:18:54.946Z,67.75
2023-03-02T09:21:22.267Z,67.87
2023-03-02T09:23:49.055Z,67.38
2023-03-02T09:26:15.452Z,67.02
2023-03-02T09:28:41.968Z,66.56
2023-03-02T09:31:08.788Z,66.65
2023-03-02T09:33:35.423Z,65.66
2023-03-02T09:36:09.652Z,66.31
2023-03-02T09:38:36.031Z,65.72
2023-03-02T09:41:11.576Z,66.37
2023-03-02T09:43:53.589Z,66.09
2023-03-02T09:46:36.191Z,65.82
2023-03-02T09:49:30.166Z,66.12
2023-03-02T09:52:13.844Z,65.48
2023-03-02T09:54:41.282Z,65.19
2023-03-02T09:57:27.853Z,64.88
2023-03-02T10:00:04.009Z,65.06
2023-03-02T10:02:50.078Z,65.25
2023-03-02T10:05:30.951Z,64.97
2023-03-02T10:07:59.312Z,64.79
2023-03-02T10:10:43.518Z,64.38
2023-03-02T10:13:30.930Z,63.98
2023-03-02T10:16:07.628Z,63.75
2023-03-02T10:18:48.562Z,64.19
2023-03-02T10:21:32.500Z,63.72
2023-03-02T10:24:24.294Z,64.24
2023-03-02T10:26:58.266Z,63.96
2023-03-02T10:29:42.537Z,63.19
2023-03-02T10:32:20.368Z,64.07
2023-03-02T10:34:48.525Z,63.54
2023-03-02T10:37:18.530Z,63.33
2023-03-02T10:39:44.977Z,63.21
2023-03-02T10:42:17.827Z,62.54
2023-03-02T10:45:22.313Z,62.18
2023-03-02T10:48:00.002Z,62.16
2023-03-02T10:50:26.546Z,62.12
2023-03-02T10:53:02.391Z,61.68
2023-03-02T10:55:30.533Z,61.71
2023-03-02T10:58:02.088Z,62.10
2023-03-02T11:00:30.943Z,62.01
2023-03-02T11:03:00.968Z,61.46
2023-03-02T11:05:33.338Z,61.39
2023-03-02T11:08:10.977Z,61.32
2023-03-02T11:10:51.382Z,61.48
2023-03-02T11:13:29.951Z,61.06
2023-03-02T11:16:04.854Z,61.35
2023-03-02T11:18:40.950Z,61.11
2023-03-02T11:21:17.179Z,61.25
2023-03-02T11:23:56.568Z,60.98
2023-03-02T11:27:02.497Z,60.96
2023-03-02T11:29:48.762Z,60.46
2023-03-02T11:38:32.646Z,59.93
2023-03-02T11:41:07.987Z,59.99
2023-03-02T11:43:34.857Z,59.87
2023-03-02T11:46:10.824Z,59.81
2023-03-02T11:48:47.076Z,59.67
2023-03-02T11:51:18.557Z,59.80
2023-03-02T11:54:03.118Z,59.28
2023-03-02T11:56:32.493Z,58.89
2023-03-02T11:59:04.985Z,59.68
2023-03-02T12:01:34.411Z,59.37
2023-03-02T12:04:11.265Z,59.29
2023-03-02T12:06:44.368Z,59.28
2023-03-02T12:09:30.800Z,58.95
2023-03-02T12:12:17.099Z,59.56
2023-03-02T12:14:45.618Z,58.59
2023-03-02T12:17:30.711Z,58.40
2023-03-02T12:20:24.755Z,58.42
2023-03-02T12:22:51.256Z,58.17
2023-03-02T12:25:20.391Z,58.09
2023-03-02T12:27:49.603Z,57.71
2023-03-02T12:30:16.147Z,58.14
2023-03-02T12:32:46.701Z,57.86
2023-03-02T12:35:17.610Z,57.70
2023-03-02T12:37:57.187Z,58.20
2023-03-02T12:40:39.265Z,57.54
2023-03-02T12:43:16.653Z,57.68
2023-03-02T12:45:58.523Z,57.79
2023-03-02T12:48:30.435Z,57.59
2023-03-02T12:51:01.784Z,57.70
2023-03-02T12:53:28.947Z,57.69
2023-03-02T12:55:55.770Z,57.16
2023-03-02T12:58:29.271Z,57.82
2023-03-02T13:01:00.288Z,57.67
2023-03-02T13:03:29.896Z,57.33
2023-03-02T13:06:04.887Z,56.96
2023-03-02T13:08:32.211Z,57.43
2023-03-02T13:11:01.794Z,57.53
2023-03-02T13:13:36.753Z,57.43
2023-03-02T13:16:06.197Z,57.04
2023-03-02T13:18:36.577Z,56.78
2023-03-02T13:21:04.514Z,56.59
2023-03-02T13:23:32.601Z,56.66
2023-03-02T13:26:02.234Z,56.90
2023-03-02T13:28:31.586Z,56.72
2023-03-02T13:31:01.208Z,56.50
2023-03-02T13:33:29.663Z,56.66
2023-03-02T13:35:56.592Z,56.56
2023-03-02T13:38:26.813Z,56.79
2023-03-02T13:40:55.199Z,56.68
2023-03-02T13:43:30.827Z,56.64
2023-03-02T13:46:01.439Z,56.21
2023-03-02T13:48:29.317Z,56.28
2023-03-02T13:51:03.865Z,56.42
2023-03-02T13:53:34.651Z,56.06
2023-03-02T13:56:01.304Z,56.04
2023-03-02T13:58:29.709Z,56.11
2023-03-02T14:00:56.345Z,56.39
2023-03-02T14:03:29.943Z,55.88
2023-03-02T14:05:58.487Z,55.91
2023-03-02T14:08:25.139Z,55.97
2023-03-02T14:10:54.405Z,56.53
2023-03-02T14:13:25.288Z,55.83
2023-03-02T14:15:53.527Z,55.61
2023-03-02T14:18:36.382Z,55.60
2023-03-02T14:21:03.151Z,55.83
2023-03-02T14:23:30.103Z,55.79
2023-03-02T14:25:57.196Z,56.06
2023-03-02T14:28:33.131Z,55.25
2023-03-02T14:30:59.597Z,56.31
2023-03-02T14:33:26.290Z,56.26
2023-03-02T14:35:55.980Z,55.55
2023-03-02T14:38:24.315Z,55.37
2023-03-02T14:40:51.215Z,55.57
2023-03-02T14:43:18.601Z,55.34
2023-03-02T14:45:45.490Z,55.47
2023-03-02T14:48:11.891Z,55.84
2023-03-02T14:50:44.138Z,55.37
2023-03-02T14:53:22.936Z,55.63
2023-03-02T14:55:49.413Z,55.74
2023-03-02T14:58:20.952Z,55.48
2023-03-02T15:00:47.482Z,55.57
2023-03-02T15:03:16.358Z,55.32
2023-03-02T15:05:51.783Z,55.82
2023-03-02T15:08:25.754Z,55.41
2023-03-02T15:10:52.144Z,55.51
2023-03-02T15:13:18.525Z,55.58
2023-03-02T15:15:45.010Z,55.75
2023-03-02T15:18:12.987Z,55.27
2023-03-02T15:20:39.958Z,55.43
2023-03-02T15:23:06.445Z,55.69
2023-03-02T15:25:32.823Z,55.72
2023-03-02T15:27:59.379Z,55.58
2023-03-02T15:30:30.311Z,55.80
2023-03-02T15:32:59.438Z,55.48
2023-03-02T15:35:27.514Z,55.42
2023-03-02T15:37:54.275Z,55.94
2023-03-02T15:40:20.692Z,55.95
2023-03-02T15:42:47.874Z,56.01
2023-03-02T15:45:14.398Z,55.92
2023-03-02T15:47:40.785Z,55.93
2023-03-02T15:50:07.630Z,56.08
2023-03-02T15:52:34.023Z,55.56
2023-03-02T15:55:00.406Z,55.59
2023-03-02T15:57:26.787Z,55.92
2023-03-02T15:59:53.168Z,55.72
2023-03-02T16:02:19.556Z,55.96
2023-03-02T16:04:46.275Z,56.07
2023-03-02T16:07:12.642Z,56.41
2023-03-02T16:09:39.085Z,56.30
2023-03-02T16:12:05.736Z,56.18
2023-03-02T16:14:34.043Z,56.55
2023-03-02T16:17:00.596Z,56.57
2023-03-02T16:19:27.125Z,56.69
2023-03-02T16:21:53.490Z,56.43
2023-03-02T16:24:19.900Z,56.59
2023-03-02T16:26:46.292Z,56.19
2023-03-02T16:29:13.826Z,56.28
2023-03-02T16:31:41.582Z,56.52
2023-03-02T16:34:09.063Z,56.81
2023-03-02T16:36:37.790Z,56.23
2023-03-02T16:39:05.393Z,56.50
2023-03-02T16:41:31.756Z,56.36
2023-03-02T16:43:59.814Z,56.61
2023-03-02T16:46:29.461Z,56.68
2023-03-02T16:48:57.086Z,56.90
2023-03-02T16:51:24.184Z,56.70
2023-03-02T16:53:50.622Z,56.24
2023-03-02T16:56:17.146Z,56.57
2023-03-02T16:58:43.547Z,57.19
2023-03-02T17:01:17.776Z,56.68
2023-03-02T17:03:44.971Z,56.67
2023-03-02T17:06:13.859Z,57.01
2023-03-02T17:08:40.870Z,57.37
2023-03-02T17:11:07.303Z,57.17
2023-03-02T17:13:34.089Z,57.45
2023-03-02T17:16:00.919Z,57.18
2023-03-02T17:18:28.018Z,57.72
2023-03-02T17:20:56.684Z,57.27
2023-03-02T17:23:23.445Z,57.28
2023-03-02T17:25:50.043Z,57.37
2023-03-02T17:28:16.988Z,57.30
2023-03-02T17:30:44.895Z,57.08
2023-03-02T17:33:11.361Z,57.31
2023-03-02T17:35:38.069Z,57.93
2023-03-02T17:38:04.648Z,57.87
2023-03-02T17:40:32.034Z,58.17
2023-03-02T17:42:58.402Z,57.97
2023-03-02T17:45:26.968Z,57.96
2023-03-02T17:47:55.684Z,57.59
2023-03-02T17:50:23.477Z,57.77
2023-03-02T17:52:50.264Z,57.61
2023-03-02T17:55:16.991Z,57.56
2023-03-02T17:57:43.396Z,57.75
2023-03-02T18:00:14.166Z,57.41
2023-03-02T18:02:40.728Z,57.69
2023-03-02T18:05:09.990Z,57.71
2023-03-02T18:07:37.012Z,57.88
2023-03-02T18:10:04.538Z,58.23
2023-03-02T18:12:31.044Z,58.05
2023-03-02T18:14:57.397Z,57.93
2023-03-02T18:17:23.790Z,58.07
2023-03-02T18:19:50.664Z,58.21
2023-03-02T18:22:17.355Z,58.71
2023-03-02T18:24:43.721Z,58.48
2023-03-02T18:27:10.109Z,58.66
2023-03-02T18:29:36.519Z,58.30
2023-03-02T18:32:02.984Z,58.83
2023-03-02T18:34:29.401Z,58.55
2023-03-02T18:36:56.256Z,58.82
2023-03-02T18:39:22.681Z,59.08
2023-03-02T18:41:49.610Z,58.95
2023-03-02T18:44:16.083Z,58.73
2023-03-02T18:46:42.547Z,58.94
2023-03-02T18:49:09.006Z,59.08
2023-03-02T18:51:35.709Z,58.97
2023-03-02T18:54:02.113Z,59.37
2023-03-02T18:56:28.531Z,58.81
2023-03-02T18:58:54.904Z,59.21
2023-03-02T19:01:22.256Z,59.30
2023-03-02T19:03:49.238Z,59.26
2023-03-02T19:06:16.503Z,59.07
2023-03-02T19:08:43.296Z,59.03
2023-03-02T19:11:10.937Z,58.98
2023-03-02T19:13:37.334Z,59.53
2023-03-02T19:16:04.093Z,59.40
2023-03-02T19:18:31.159Z,59.42
2023-03-02T19:20:57.722Z,59.62
2023-03-02T19:23:24.795Z,59.70
2023-03-02T19:25:52.064Z,59.37
2023-03-02T19:28:18.642Z,59.73
2023-03-02T19:30:45.029Z,59.64
2023-03-02T19:33:11.806Z,59.71
2023-03-02T19:35:38.476Z,59.72
2023-03-02T19:38:06.537Z,60.18
2023-03-02T19:40:34.434Z,60.12
2023-03-02T19:43:01.599Z,60.04
2023-03-02T19:45:32.133Z,59.87
2023-03-02T19:47:59.906Z,60.00
2023-03-02T19:50:27.325Z,60.12
2023-03-02T19:52:54.786Z,60.38
2023-03-02T19:55:22.293Z,60.47
2023-03-02T19:57:56.438Z,60.61
2023-03-02T20:00:23.853Z,60.24
2023-03-02T20:02:50.317Z,60.72
2023-03-02T20:05:17.110Z,61.01
2023-03-02T20:07:43.993Z,60.91
2023-03-02T20:10:12.925Z,61.35
2023-03-02T20:12:39.350Z,61.37
2023-03-02T20:15:06.606Z,61.37
2023-03-02T20:17:33.815Z,61.45
2023-03-02T20:20:01.229Z,61.61
2023-03-02T20:22:27.849Z,61.94
2023-03-02T20:24:54.248Z,61.52
2023-03-02T20:27:21.277Z,61.96
2023-03-02T20:29:48.202Z,61.97
2023-03-02T20:32:15.596Z,62.01
2023-03-02T20:34:43.338Z,62.38
2023-03-02T20:37:10.404Z,62.30
2023-03-02T20:39:38.579Z,62.34
2023-03-02T20:42:07.068Z,62.82
2023-03-02T20:44:33.654Z,62.78
2023-03-02T20:47:04.491Z,62.99
2023-03-02T20:49:31.805Z,63.37
2023-03-02T20:51:59.778Z,64.02
2023-03-02T20:54:30.813Z,63.70
2023-03-02T20:56:57.935Z,63.37
2023-03-02T20:59:25.203Z,64.38
2023-03-02T21:01:51.881Z,64.14
2023-03-02T21:04:18.741Z,64.23
2023-03-02T21:06:46.181Z,64.91
2023-03-02T21:09:13.323Z,64.62
2023-03-02T21:11:40.497Z,64.89
2023-03-02T21:14:06.991Z,65.15
2023-03-02T21:16:37.840Z,65.11
2023-03-02T21:19:06.550Z,65.63
2023-03-02T21:21:41.511Z,65.59
2023-03-02T21:24:10.943Z,65.81
2023-03-02T21:26:37.730Z,65.90
2023-03-02T21:29:05.391Z,65.84
2023-03-02T21:31:32.020Z,66.05
2023-03-02T21:34:00.076Z,65.92
2023-03-02T21:36:26.939Z,66.21
2023-03-02T21:38:53.359Z,65.83
2023-03-02T21:41:19.910Z,66.35
2023-03-02T21:43:46.435Z,66.14
2023-03-02T21:46:14.917Z,66.90
2023-03-02T21:48:41.704Z,66.79
2023-03-02T21:51:08.229Z,66.88
2023-03-02T21:53:34.683Z,66.98
2023-03-02T21:56:01.799Z,66.92
2023-03-02T21:58:29.667Z,66.87
2023-03-02T22:00:56.061Z,66.97
2023-03-02T22:03:22.463Z,67.08
2023-03-02T22:05:48.853Z,67.29
2023-03-02T22:08:17.880Z,67.46
2023-03-02T22:10:47.324Z,67.83
2023-03-02T22:13:23.117Z,67.52
2023-03-02T22:15:55.905Z,67.36
2023-03-02T22:18:25.071Z,67.50
2023-03-02T22:20:51.622Z,67.79
2023-03-02T22:23:21.972Z,67.77
2023-03-02T22:25:54.896Z,67.66
2023-03-02T22:28:24.238Z,67.86
2023-03-02T22:30:52.358Z,67.75
2023-03-02T22:33:24.493Z,67.79
2023-03-02T22:35:52.843Z,67.57
2023-03-02T22:38:24.690Z,67.43
2023-03-02T22:40:52.328Z,67.46
2023-03-02T22:43:25.899Z,67.59
2023-03-02T22:45:53.896Z,67.60
2023-03-02T22:48:23.207Z,67.91
2023-03-02T22:50:50.258Z,67.75
2023-03-02T22:53:30.912Z,67.89
2023-03-02T22:56:02.857Z,67.91
2023-03-02T22:58:49.074Z,67.74
2023-03-02T23:01:19.479Z,67.62
2023-03-02T23:03:47.954Z,68.02
2023-03-02T23:06:22.109Z,68.10
2023-03-02T23:08:48.589Z,68.06
2023-03-02T23:11:17.864Z,68.01
2023-03-02T23:13:44.658Z,67.97
2023-03-02T23:16:20.359Z,67.84
2023-03-02T23:18:50.500Z,68.12
2023-03-02T23:21:19.924Z,68.14
2023-03-02T23:23:47.381Z,68.25
2023-03-02T23:26:14.013Z,68.49
2023-03-02T23:28:40.385Z,68.70
2023-03-02T23:31:07.307Z,69.01
2023-03-02T23:33:33.760Z,68.74
2023-03-02T23:36:00.766Z,68.37
2023-03-02T23:38:27.384Z,68.22
2023-03-02T23:40:54.340Z,68.36
2023-03-02T23:43:20.842Z,68.86
2023-03-02T23:45:47.644Z,68.65
2023-03-02T23:48:14.056Z,68.54
2023-03-02T23:50:40.432Z,68.13
2023-03-02T23:53:06.794Z,68.28
2023-03-02T23:55:34.212Z,68.50
2023-03-02T23:58:00.796Z,67.98
